createdAt,value
2019-03-21T00:00:28.933Z,99.90
2019-03-21T00:05:19.420Z,99.90
2019-03-21T00:10:11.494Z,99.90
2019-03-21T00:15:03.805Z,99.90
2019-03-21T00:19:55.498Z,99.90
2019-03-21T00:24:47.254Z,99.90
2019-03-21T00:29:39.086Z,99.90
2019-03-21T00:34:31.050Z,99.90
2019-03-21T00:39:33.772Z,99.90
2019-03-21T00:44:25.931Z,99.90
2019-03-21T00:49:16.748Z,99.90
2019-03-21T00:54:09.801Z,99.90
2019-03-21T00:59:01.480Z,99.90
2019-03-21T01:03:55.157Z,99.90
2019-03-21T01:08:47.095Z,99.90
2019-03-21T01:13:38.918Z,99.90
2019-03-21T01:18:30.304Z,99.90
2019-03-21T01:23:21.928Z,99.90
2019-03-21T01:28:12.809Z,99.90
2019-03-21T01:33:03.658Z,99.90
2019-03-21T01:37:54.779Z,99.90
2019-03-21T01:42:45.975Z,99.90
2019-03-21T01:47:37.770Z,99.90
2019-03-21T01:52:29.621Z,99.90
2019-03-21T01:57:23.191Z,99.90
2019-03-21T02:02:14.690Z,99.90
2019-03-21T02:07:06.587Z,99.90
2019-03-21T02:11:58.439Z,99.90
2019-03-21T02:16:50.387Z,99.90
2019-03-21T02:21:42.288Z,99.90
2019-03-21T02:26:34.343Z,99.90
2019-03-21T02:31:27.125Z,99.90
2019-03-21T02:36:18.911Z,99.90
2019-03-21T02:41:10.959Z,99.90
2019-03-21T02:46:03.079Z,99.90
2019-03-21T02:50:54.949Z,99.90
2019-03-21T02:55:49.014Z,99.90
2019-03-21T03:00:40.082Z,99.90
2019-03-21T03:05:31.427Z,99.90
2019-03-21T03:10:23.328Z,99.90
2019-03-21T03:15:24.344Z,99.90
2019-03-21T03:20:16.406Z,99.90
2019-03-21T03:25:08.295Z,99.90
2019-03-21T03:30:00.006Z,99.90
2019-03-21T03:34:52.406Z,99.90
2019-03-21T03:39:44.230Z,99.90
2019-03-21T03:44:36.534Z,99.90
2019-03-21T03:49:28.137Z,99.90
2019-03-21T03:54:19.898Z,99.90
2019-03-21T03:59:12.010Z,99.90
2019-03-21T04:04:03.904Z,99.90
2019-03-21T04:08:55.578Z,99.90
2019-03-21T04:13:47.746Z,99.90
2019-03-21T04:18:39.711Z,99.90
2019-03-21T04:23:32.103Z,99.90
2019-03-21T04:28:24.090Z,99.90
2019-03-21T04:33:16.262Z,99.90
2019-03-21T04:38:08.416Z,99.90
2019-03-21T04:43:00.439Z,99.90
2019-03-21T04:47:52.559Z,99.90
2019-03-21T04:52:44.539Z,99.90
2019-03-21T04:57:36.642Z,99.90
2019-03-21T05:02:28.713Z,99.90
2019-03-21T05:07:20.604Z,99.90
2019-03-21T05:12:12.660Z,99.90
2019-03-21T05:17:04.417Z,99.90
2019-03-21T05:21:56.362Z,99.90
2019-03-21T05:26:48.301Z,99.90
2019-03-21T05:31:40.328Z,99.90
2019-03-21T05:36:32.240Z,99.90
2019-03-21T05:41:23.953Z,99.90
2019-03-21T05:46:27.569Z,99.90
2019-03-21T05:51:17.298Z,99.90
2019-03-21T05:56:09.183Z,99.90
2019-03-21T06:01:02.015Z,99.90
2019-03-21T06:05:53.535Z,99.90
2019-03-21T06:10:45.669Z,99.90
2019-03-21T06:15:37.459Z,99.90
2019-03-21T06:20:29.767Z,99.90
2019-03-21T06:25:21.742Z,99.90
2019-03-21T06:30:15.893Z,99.90
2019-03-21T06:35:07.483Z,99.90
2019-03-21T06:40:01.645Z,99.90
2019-03-21T06:44:53.533Z,99.90
2019-03-21T06:49:47.727Z,99.90
2019-03-21T06:54:38.857Z,99.90
2019-03-21T06:59:31.122Z,99.90
2019-03-21T07:04:23.085Z,99.90
2019-03-21T07:09:16.229Z,99.90
2019-03-21T07:14:08.062Z,99.90
2019-03-21T07:19:00.156Z,99.90
2019-03-21T07:23:52.466Z,99.90
2019-03-21T07:28:44.871Z,99.90
2019-03-21T07:33:37.997Z,99.90
2019-03-21T07:38:30.215Z,99.90
2019-03-21T07:43:23.755Z,99.90
2019-03-21T07:48:15.729Z,99.90
2019-03-21T07:53:08.043Z,99.90
2019-03-21T07:58:00.890Z,99.40
2019-03-21T08:02:53.160Z,98.30
2019-03-21T08:07:45.641Z,98.30
2019-03-21T08:12:38.030Z,97.30
2019-03-21T08:17:30.425Z,96.80
2019-03-21T08:22:22.744Z,96.60
2019-03-21T08:27:17.475Z,95.70
2019-03-21T08:32:10.048Z,95.10
2019-03-21T08:37:02.448Z,92.30
2019-03-21T08:41:55.146Z,91.50
2019-03-21T08:46:47.605Z,90.00
2019-03-21T08:51:39.738Z,90.00
2019-03-21T08:56:33.919Z,86.00
2019-03-21T09:01:25.825Z,83.70
2019-03-21T09:06:18.149Z,83.30
2019-03-21T09:11:10.376Z,81.70
2019-03-21T09:16:03.029Z,82.10
2019-03-21T09:20:55.542Z,81.50
2019-03-21T09:25:47.854Z,79.00
2019-03-21T09:30:40.150Z,78.40
2019-03-21T09:35:32.578Z,78.00
2019-03-21T09:40:25.080Z,75.70
2019-03-21T09:45:17.550Z,74.10
2019-03-21T09:50:10.055Z,73.20
2019-03-21T09:55:02.908Z,70.40
2019-03-21T09:59:53.799Z,68.80
2019-03-21T10:04:45.372Z,69.00
2019-03-21T10:09:36.890Z,68.20
2019-03-21T10:14:28.444Z,67.00
2019-03-21T10:19:19.837Z,63.50
2019-03-21T10:24:11.329Z,61.90
2019-03-21T10:29:02.233Z,59.50
2019-03-21T10:33:53.726Z,60.10
2019-03-21T10:38:46.051Z,58.80
2019-03-21T10:43:38.623Z,57.20
2019-03-21T10:48:30.982Z,56.90
2019-03-21T10:53:23.815Z,56.90
2019-03-21T10:58:18.374Z,54.40
2019-03-21T11:03:10.445Z,53.90
2019-03-21T11:08:02.907Z,54.10
2019-03-21T11:12:55.330Z,52.90
2019-03-21T11:17:47.560Z,51.50
2019-03-21T11:22:39.771Z,51.80
2019-03-21T11:27:34.125Z,52.30
2019-03-21T11:32:26.089Z,52.20
2019-03-21T11:37:18.729Z,51.50
2019-03-21T11:42:11.117Z,50.60
2019-03-21T11:47:03.551Z,51.30
2019-03-21T11:51:56.192Z,50.90
2019-03-21T11:56:48.770Z,50.50
2019-03-21T12:01:41.247Z,48.50
2019-03-21T12:06:33.502Z,47.60
2019-03-21T12:11:25.773Z,46.40
2019-03-21T12:16:18.261Z,47.10
2019-03-21T12:21:10.961Z,47.40
2019-03-21T12:26:03.414Z,47.30
2019-03-21T12:30:56.088Z,45.70
2019-03-21T12:35:48.815Z,43.80
2019-03-21T12:40:41.735Z,43.90
2019-03-21T12:45:34.602Z,44.50
2019-03-21T12:50:27.341Z,44.10
2019-03-21T12:55:19.944Z,44.70
2019-03-21T13:00:12.577Z,45.10
2019-03-21T13:05:05.285Z,44.80
2019-03-21T13:09:57.733Z,43.50
2019-03-21T13:14:49.587Z,42.70
2019-03-21T13:19:41.809Z,43.10
2019-03-21T13:24:34.353Z,44.80
2019-03-21T13:29:27.049Z,44.70
2019-03-21T13:34:19.610Z,43.80
2019-03-21T13:39:12.862Z,43.00
2019-03-21T13:44:06.919Z,42.80
2019-03-21T13:48:58.519Z,43.20
2019-03-21T13:53:50.849Z,43.60
2019-03-21T13:58:43.756Z,43.90
2019-03-21T14:03:37.940Z,44.50
2019-03-21T14:08:29.959Z,44.90
2019-03-21T14:13:22.403Z,44.80
2019-03-21T14:18:14.679Z,45.70
2019-03-21T14:23:18.139Z,46.30
2019-03-21T14:28:08.185Z,46.20
2019-03-21T14:33:00.521Z,46.80
2019-03-21T14:37:52.590Z,47.30
2019-03-21T14:42:45.264Z,48.00
2019-03-21T14:47:37.889Z,48.50
2019-03-21T14:52:30.212Z,49.10
2019-03-21T14:57:23.516Z,48.80
2019-03-21T15:02:15.275Z,49.00
2019-03-21T15:07:07.226Z,48.90
2019-03-21T15:12:00.062Z,49.00
2019-03-21T15:16:52.041Z,49.60
2019-03-21T15:21:43.873Z,50.20
2019-03-21T15:26:36.145Z,50.70
2019-03-21T15:31:28.239Z,51.40
2019-03-21T15:36:20.614Z,51.50
2019-03-21T15:41:13.801Z,51.50
2019-03-21T15:46:05.822Z,52.30
2019-03-21T15:51:05.764Z,52.20
2019-03-21T15:55:56.166Z,52.70
2019-03-21T16:00:48.157Z,53.30
2019-03-21T16:05:40.217Z,53.90
2019-03-21T16:10:32.339Z,54.30
2019-03-21T16:15:24.805Z,54.80
2019-03-21T16:20:17.013Z,55.10
2019-03-21T16:25:09.038Z,55.30
2019-03-21T16:30:01.179Z,57.20
2019-03-21T16:34:55.639Z,58.20
2019-03-21T16:39:47.366Z,58.00
2019-03-21T16:44:39.689Z,58.70
2019-03-21T16:49:31.940Z,60.10
2019-03-21T16:54:24.217Z,61.80
2019-03-21T16:59:16.467Z,62.70
2019-03-21T17:04:08.584Z,64.60
2019-03-21T17:09:00.353Z,65.40
2019-03-21T17:13:52.634Z,66.80
2019-03-21T17:18:44.978Z,68.00
2019-03-21T17:23:37.116Z,69.90
2019-03-21T17:28:29.224Z,70.90
2019-03-21T17:33:21.444Z,72.20
2019-03-21T17:38:13.383Z,73.10
2019-03-21T17:43:05.575Z,74.70
2019-03-21T17:47:59.903Z,76.50
2019-03-21T17:52:51.339Z,78.00
2019-03-21T17:57:43.426Z,80.20
2019-03-21T18:02:37.627Z,82.20
2019-03-21T18:07:29.427Z,84.20
2019-03-21T18:12:21.762Z,86.30
2019-03-21T18:17:13.785Z,87.80
2019-03-21T18:22:05.826Z,89.70
2019-03-21T18:26:57.829Z,90.50
2019-03-21T18:31:49.773Z,91.20
2019-03-21T18:36:41.936Z,92.00
2019-03-21T18:41:33.810Z,92.50
2019-03-21T18:46:27.698Z,93.20
2019-03-21T18:51:19.299Z,93.90
2019-03-21T18:56:11.160Z,94.40
2019-03-21T19:01:03.179Z,94.80
2019-03-21T19:05:55.207Z,95.30
2019-03-21T19:10:47.099Z,95.90
2019-03-21T19:15:39.074Z,96.30
2019-03-21T19:20:31.166Z,96.70
2019-03-21T19:25:23.136Z,97.10
2019-03-21T19:30:16.074Z,97.60
2019-03-21T19:35:08.464Z,98.00
2019-03-21T19:40:00.347Z,98.40
2019-03-21T19:44:52.325Z,98.70
2019-03-21T19:49:44.554Z,99.00
2019-03-21T19:54:36.505Z,99.40
2019-03-21T19:59:28.419Z,99.70
2019-03-21T20:04:20.546Z,99.90
2019-03-21T20:09:12.617Z,99.90
2019-03-21T20:14:05.441Z,99.90
2019-03-21T20:18:56.969Z,99.90
2019-03-21T20:23:48.874Z,99.90
2019-03-21T20:28:41.023Z,99.90
2019-03-21T20:33:33.022Z,99.90
2019-03-21T20:38:24.967Z,99.90
2019-03-21T20:43:17.076Z,99.90
2019-03-21T20:48:09.185Z,99.90
2019-03-21T20:53:01.165Z,99.90
2019-03-21T20:57:53.357Z,99.90
2019-03-21T21:02:45.286Z,99.90
2019-03-21T21:07:37.419Z,99.90
2019-03-21T21:12:29.539Z,99.90
2019-03-21T21:17:21.460Z,99.90
2019-03-21T21:22:13.277Z,99.90
2019-03-21T21:27:05.448Z,99.90
2019-03-21T21:31:57.330Z,99.90
2019-03-21T21:36:49.317Z,99.90
2019-03-21T21:41:41.206Z,99.90
2019-03-21T21:46:33.202Z,99.90
2019-03-21T21:51:25.280Z,99.90
2019-03-21T21:56:19.181Z,99.90
2019-03-21T22:01:11.341Z,99.90
2019-03-21T22:06:06.152Z,99.90
2019-03-21T22:10:57.336Z,99.90
2019-03-21T22:15:49.373Z,99.90
2019-03-21T22:20:41.717Z,99.90
2019-03-21T22:25:35.756Z,99.90
2019-03-21T22:30:27.173Z,99.90
2019-03-21T22:35:19.253Z,99.90
2019-03-21T22:40:11.145Z,99.90
